createdAt,value
2017-11-20T00:02:22.840Z,8.10
2017-11-20T00:04:50.443Z,8.20
2017-11-20T00:07:18.113Z,8.23
2017-11-20T00:09:45.738Z,8.20
2017-11-20T00:12:13.698Z,8.47
2017-11-20T00:14:41.402Z,8.80
2017-11-20T00:17:09.330Z,8.87
2017-11-20T00:19:36.924Z,8.70
2017-11-20T00:22:04.537Z,8.10
2017-11-20T00:24:32.112Z,8.73
2017-11-20T00:26:59.750Z,9.13
2017-11-20T00:29:27.350Z,8.10
2017-11-20T00:31:55.206Z,8.07
2017-11-20T00:34:22.838Z,8.43
2017-11-20T00:36:50.747Z,8.33
2017-11-20T00:39:18.365Z,8.93
2017-11-20T00:41:45.992Z,8.20
2017-11-20T00:44:13.572Z,8.30
2017-11-20T00:46:41.188Z,8.57
2017-11-20T00:49:09.057Z,8.30
2017-11-20T00:51:36.703Z,8.37
2017-11-20T00:54:04.310Z,8.50
2017-11-20T00:56:31.902Z,7.80
2017-11-20T00:58:59.596Z,7.60
2017-11-20T01:01:27.233Z,8.73
2017-11-20T01:03:54.932Z,7.77
2017-11-20T01:06:22.543Z,9.70
2017-11-20T01:08:50.477Z,8.10
2017-11-20T01:11:18.089Z,8.07
2017-11-20T01:13:45.668Z,8.10
2017-11-20T01:16:13.562Z,8.40
2017-11-20T01:18:41.526Z,7.53
2017-11-20T01:21:09.193Z,8.80
2017-11-20T01:23:36.805Z,8.40
2017-11-20T01:26:04.428Z,7.97
2017-11-20T01:28:32.067Z,8.50
2017-11-20T01:30:59.651Z,8.53
2017-11-20T01:33:27.247Z,7.90
2017-11-20T01:35:54.857Z,8.60
2017-11-20T01:38:22.730Z,8.00
2017-11-20T01:40:50.709Z,9.07
2017-11-20T01:43:18.675Z,8.03
2017-11-20T01:45:46.269Z,8.30
2017-11-20T01:48:14.595Z,8.03
2017-11-20T01:50:42.191Z,8.30
2017-11-20T01:53:09.853Z,8.07
2017-11-20T01:55:37.436Z,7.90
2017-11-20T01:58:05.021Z,8.00
2017-11-20T02:00:32.675Z,8.30
2017-11-20T02:03:01.407Z,8.23
2017-11-20T02:05:29.025Z,7.67
2017-11-20T02:07:56.626Z,8.67
2017-11-20T02:10:24.303Z,7.73
2017-11-20T02:12:51.967Z,8.20
2017-11-20T02:15:19.572Z,8.57
2017-11-20T02:17:47.590Z,7.73
2017-11-20T02:20:15.173Z,8.20
2017-11-20T02:22:43.020Z,7.77
2017-11-20T02:25:10.636Z,8.70
2017-11-20T02:27:38.556Z,8.00
2017-11-20T02:30:06.218Z,8.23
2017-11-20T02:32:34.086Z,8.50
2017-11-20T02:35:01.663Z,8.77
2017-11-20T02:37:29.302Z,8.70
2017-11-20T02:39:56.889Z,7.97
2017-11-20T02:42:24.519Z,8.37
2017-11-20T02:44:52.101Z,8.23
2017-11-20T02:47:19.692Z,7.70
2017-11-20T02:49:47.351Z,8.50
2017-11-20T02:52:14.982Z,8.87
2017-11-20T02:54:42.602Z,8.77
2017-11-20T02:57:10.177Z,8.53
2017-11-20T02:59:37.873Z,8.03
2017-11-20T03:02:05.519Z,8.47
2017-11-20T03:04:33.121Z,8.63
2017-11-20T03:07:00.737Z,10.10
2017-11-20T03:09:28.326Z,8.87
2017-11-20T03:11:55.920Z,8.47
2017-11-20T03:14:23.521Z,9.23
2017-11-20T03:16:51.408Z,9.63
2017-11-20T03:19:19.092Z,10.33
2017-11-20T03:21:46.729Z,9.73
2017-11-20T03:24:14.599Z,9.90
2017-11-20T03:26:42.215Z,10.73
2017-11-20T03:29:10.125Z,10.20
2017-11-20T03:31:37.767Z,10.90
2017-11-20T03:34:05.344Z,10.47
2017-11-20T03:36:33.219Z,9.80
2017-11-20T03:39:00.832Z,11.60
2017-11-20T03:41:28.454Z,10.53
2017-11-20T03:43:56.093Z,10.20
2017-11-20T03:46:23.701Z,9.57
2017-11-20T03:48:51.333Z,9.60
2017-11-20T03:51:18.957Z,10.27
2017-11-20T03:53:46.557Z,10.30
2017-11-20T03:56:14.181Z,10.00
2017-11-20T03:58:41.763Z,9.70
2017-11-20T04:01:09.345Z,9.67
2017-11-20T04:03:36.953Z,9.90
2017-11-20T04:06:04.878Z,10.40
2017-11-20T04:08:32.521Z,10.00
2017-11-20T04:11:00.105Z,9.70
2017-11-20T04:13:27.966Z,10.20
2017-11-20T04:15:55.572Z,10.13
2017-11-20T04:18:23.154Z,9.90
2017-11-20T04:20:50.786Z,10.00
2017-11-20T04:23:18.379Z,9.60
2017-11-20T04:25:45.974Z,9.40
2017-11-20T04:28:13.601Z,9.53
2017-11-20T04:30:41.215Z,9.50
2017-11-20T04:33:08.837Z,9.67
2017-11-20T04:35:36.418Z,9.90
2017-11-20T04:38:04.002Z,9.33
2017-11-20T04:40:31.638Z,9.57
2017-11-20T04:42:59.226Z,10.20
2017-11-20T04:45:26.908Z,10.30
2017-11-20T04:47:54.508Z,9.80
2017-11-20T04:50:22.102Z,9.40
2017-11-20T04:52:49.701Z,9.87
2017-11-20T04:55:17.296Z,9.03
2017-11-20T04:57:44.923Z,9.80
2017-11-20T05:00:12.500Z,9.70
2017-11-20T05:02:40.088Z,9.10
2017-11-20T05:05:07.747Z,9.97
2017-11-20T05:07:35.378Z,8.90
2017-11-20T05:10:03.042Z,9.50
2017-11-20T05:12:31.194Z,9.23
2017-11-20T05:14:58.792Z,8.90
2017-11-20T05:17:26.389Z,9.03
2017-11-20T05:19:53.969Z,9.40
2017-11-20T05:22:21.597Z,9.20
2017-11-20T05:24:49.478Z,9.50
2017-11-20T05:27:17.056Z,9.73
2017-11-20T05:29:44.677Z,9.53
2017-11-20T05:32:12.274Z,10.07
2017-11-20T05:34:39.886Z,9.53
2017-11-20T05:37:07.517Z,9.67
2017-11-20T05:39:35.377Z,9.70
2017-11-20T05:42:03.329Z,9.40
2017-11-20T05:44:30.959Z,8.90
2017-11-20T05:46:58.628Z,9.70
2017-11-20T05:49:26.202Z,9.47
2017-11-20T05:51:53.847Z,9.40
2017-11-20T05:54:21.428Z,9.70
2017-11-20T05:56:49.401Z,9.20
2017-11-20T05:59:16.989Z,9.63
2017-11-20T06:01:44.573Z,10.00
2017-11-20T06:04:12.228Z,10.17
2017-11-20T06:06:40.055Z,9.37
2017-11-20T06:09:08.020Z,9.90
2017-11-20T06:11:35.609Z,10.00
2017-11-20T06:14:03.184Z,10.33
2017-11-20T06:16:30.802Z,10.60
2017-11-20T06:18:58.388Z,10.23
2017-11-20T06:21:26.010Z,10.10
2017-11-20T06:23:53.901Z,9.77
2017-11-20T06:26:21.775Z,10.20
2017-11-20T06:28:49.441Z,10.23
2017-11-20T06:31:17.042Z,9.90
2017-11-20T06:33:44.680Z,9.70
2017-11-20T06:36:12.261Z,10.17
2017-11-20T06:38:39.838Z,9.93
2017-11-20T06:41:07.754Z,10.07
2017-11-20T06:43:35.342Z,9.33
2017-11-20T06:46:03.295Z,10.10
2017-11-20T06:48:30.897Z,10.07
2017-11-20T06:50:58.543Z,10.30
2017-11-20T06:53:26.402Z,10.43
2017-11-20T06:55:53.986Z,10.27
2017-11-20T06:58:21.605Z,10.27
2017-11-20T07:00:49.186Z,10.90
2017-11-20T07:03:16.752Z,9.90
2017-11-20T07:05:44.440Z,10.20
2017-11-20T07:08:12.028Z,10.63
2017-11-20T07:10:39.653Z,10.57
2017-11-20T07:13:07.248Z,10.80
2017-11-20T07:15:34.836Z,11.20
2017-11-20T07:18:02.449Z,10.47
2017-11-20T07:20:37.913Z,10.27
2017-11-20T07:23:05.537Z,11.33
2017-11-20T07:28:46.689Z,10.23
2017-11-20T07:31:30.043Z,10.93
2017-11-20T07:34:09.494Z,10.93
2017-11-20T07:36:48.773Z,11.40
2017-11-20T07:39:17.335Z,11.53
2017-11-20T07:41:51.704Z,11.17
2017-11-20T07:44:19.677Z,12.43
2017-11-20T07:46:47.436Z,10.47
2017-11-20T07:49:15.012Z,10.97
2017-11-20T07:51:42.662Z,12.00
2017-11-20T07:54:10.257Z,11.27
2017-11-20T07:56:37.867Z,11.73
2017-11-20T07:59:05.490Z,12.00
2017-11-20T08:01:33.125Z,11.83
2017-11-20T08:04:00.763Z,11.20
2017-11-20T08:06:28.376Z,10.67
2017-11-20T08:08:55.975Z,11.77
2017-11-20T08:11:23.601Z,10.87
2017-11-20T08:13:51.213Z,12.87
2017-11-20T08:16:18.867Z,12.00
2017-11-20T08:18:46.463Z,11.60
2017-11-20T08:21:14.052Z,11.13
2017-11-20T08:23:41.681Z,10.83
2017-11-20T08:26:09.277Z,10.77
2017-11-20T08:28:36.922Z,10.77
2017-11-20T08:31:04.514Z,11.13
2017-11-20T08:33:32.107Z,11.20
2017-11-20T08:35:59.718Z,11.80
2017-11-20T08:38:27.320Z,11.30
2017-11-20T08:40:54.960Z,10.90
2017-11-20T08:43:22.878Z,10.67
2017-11-20T08:45:50.466Z,10.50
2017-11-20T08:48:18.083Z,10.67
2017-11-20T08:50:45.699Z,11.00
2017-11-20T08:53:13.344Z,10.83
2017-11-20T08:55:41.026Z,10.90
2017-11-20T08:58:08.863Z,10.63
2017-11-20T09:00:36.572Z,11.27
2017-11-20T09:03:04.307Z,10.10
2017-11-20T09:05:32.033Z,10.93
2017-11-20T09:07:59.627Z,9.37
2017-11-20T09:10:27.218Z,9.73
2017-11-20T09:12:54.904Z,10.33
2017-11-20T09:15:22.502Z,10.80
2017-11-20T09:17:50.366Z,10.80
2017-11-20T09:20:17.963Z,10.20
2017-11-20T09:22:45.907Z,9.60
2017-11-20T09:25:13.579Z,10.80
2017-11-20T09:27:41.180Z,9.80
2017-11-20T09:30:09.090Z,10.50
2017-11-20T09:32:36.679Z,9.70
2017-11-20T09:35:04.292Z,9.80
2017-11-20T09:37:31.952Z,9.53
2017-11-20T09:39:59.544Z,9.93
2017-11-20T09:42:27.192Z,9.83
2017-11-20T09:44:54.788Z,9.90
2017-11-20T09:47:22.948Z,9.80
2017-11-20T09:49:50.585Z,9.97
2017-11-20T09:52:18.215Z,10.23
2017-11-20T09:54:46.129Z,9.90
2017-11-20T09:57:13.725Z,9.43
2017-11-20T09:59:41.312Z,9.47
2017-11-20T10:02:08.927Z,9.83
2017-11-20T10:04:36.526Z,10.07
2017-11-20T10:07:04.183Z,9.23
2017-11-20T10:09:31.804Z,9.87
2017-11-20T10:11:59.413Z,9.63
2017-11-20T10:14:27.067Z,9.17
2017-11-20T10:16:54.670Z,9.60
2017-11-20T10:19:22.316Z,10.00
2017-11-20T10:21:49.923Z,10.20
2017-11-20T10:24:17.509Z,9.60
2017-11-20T10:26:45.118Z,9.63
2017-11-20T10:29:12.741Z,10.37
2017-11-20T10:31:40.360Z,9.73
2017-11-20T10:34:07.999Z,11.30
2017-11-20T10:36:35.601Z,10.40
2017-11-20T10:39:03.267Z,10.10
2017-11-20T10:41:32.039Z,10.70
2017-11-20T10:43:59.733Z,9.00
2017-11-20T10:46:27.665Z,9.53
2017-11-20T10:48:55.248Z,9.57
2017-11-20T10:51:22.881Z,9.47
2017-11-20T10:53:50.473Z,9.53
2017-11-20T10:56:18.414Z,10.03
2017-11-20T10:58:46.001Z,9.97
2017-11-20T11:01:13.650Z,9.20
2017-11-20T11:03:41.292Z,9.50
2017-11-20T11:06:08.877Z,9.50
2017-11-20T11:08:36.511Z,9.40
2017-11-20T11:11:04.327Z,9.40
2017-11-20T11:13:31.968Z,9.33
2017-11-20T11:15:59.631Z,9.40
2017-11-20T11:18:27.230Z,9.17
2017-11-20T11:20:55.178Z,9.70
2017-11-20T11:23:22.762Z,10.07
2017-11-20T11:25:50.407Z,9.23
2017-11-20T11:28:18.032Z,9.70
2017-11-20T11:30:45.652Z,9.90
2017-11-20T11:33:13.279Z,9.07
2017-11-20T11:35:40.878Z,9.50
2017-11-20T11:38:08.525Z,9.43
2017-11-20T11:40:36.161Z,10.03
2017-11-20T11:43:03.928Z,9.53
2017-11-20T11:45:31.550Z,9.33
2017-11-20T11:47:59.155Z,9.77
2017-11-20T11:50:26.802Z,9.10
2017-11-20T11:52:54.413Z,9.20
2017-11-20T11:55:22.760Z,9.33
2017-11-20T11:57:50.389Z,9.93
2017-11-20T12:00:18.030Z,9.23
2017-11-20T12:02:45.653Z,9.47
2017-11-20T12:05:13.260Z,9.33
2017-11-20T12:07:40.891Z,9.57
2017-11-20T12:10:08.505Z,9.40
2017-11-20T12:12:36.089Z,9.50
2017-11-20T12:15:03.705Z,9.20
2017-11-20T12:17:31.357Z,9.13
2017-11-20T12:19:58.945Z,9.40
2017-11-20T12:22:26.606Z,9.30
2017-11-20T12:24:54.243Z,9.53
2017-11-20T12:27:21.918Z,9.10
2017-11-20T12:29:49.549Z,8.80
2017-11-20T12:32:17.222Z,9.23
2017-11-20T12:34:45.015Z,8.70
2017-11-20T12:37:12.617Z,9.40
2017-11-20T12:39:40.302Z,9.83
2017-11-20T12:42:07.953Z,9.83
2017-11-20T12:44:35.726Z,9.27
2017-11-20T12:47:03.399Z,9.00
2017-11-20T12:49:31.211Z,8.80
2017-11-20T12:51:58.901Z,8.70
2017-11-20T12:54:26.566Z,9.47
2017-11-20T12:56:54.228Z,8.97
2017-11-20T12:59:21.846Z,8.80
2017-11-20T13:01:49.533Z,9.30
2017-11-20T13:04:17.261Z,8.77
2017-11-20T13:06:44.948Z,9.10
2017-11-20T13:09:12.644Z,8.63
2017-11-20T13:11:40.298Z,8.40
2017-11-20T13:14:07.903Z,8.50
2017-11-20T13:16:35.573Z,8.40
2017-11-20T13:19:03.282Z,9.10
2017-11-20T13:21:30.869Z,8.93
2017-11-20T13:23:58.521Z,8.60
2017-11-20T13:26:26.129Z,8.60
2017-11-20T13:28:53.774Z,8.33
2017-11-20T13:31:21.389Z,8.43
2017-11-20T13:33:48.973Z,8.60
2017-11-20T13:36:16.576Z,8.50
2017-11-20T13:38:44.168Z,8.43
2017-11-20T13:41:11.769Z,9.23
2017-11-20T13:43:39.398Z,8.80
2017-11-20T13:46:07.026Z,8.37
2017-11-20T13:48:35.682Z,8.57
2017-11-20T13:51:03.659Z,8.60
2017-11-20T13:53:31.271Z,8.63
2017-11-20T13:55:58.869Z,9.13
2017-11-20T13:58:27.362Z,8.57
2017-11-20T14:00:55.010Z,8.67
2017-11-20T14:03:22.699Z,8.57
2017-11-20T14:05:50.381Z,8.70
2017-11-20T14:08:17.982Z,8.97
2017-11-20T14:10:45.717Z,8.80
2017-11-20T14:13:13.468Z,9.10
2017-11-20T14:15:41.071Z,9.57
2017-11-20T14:18:08.717Z,9.57
2017-11-20T14:20:36.338Z,9.37
2017-11-20T14:23:04.081Z,8.77
2017-11-20T14:25:31.783Z,8.30
2017-11-20T14:27:59.390Z,9.83
2017-11-20T14:30:27.138Z,8.47
2017-11-20T14:32:54.870Z,8.87
2017-11-20T14:35:22.594Z,8.73
2017-11-20T14:37:50.231Z,9.60
2017-11-20T14:40:17.859Z,8.80
2017-11-20T14:42:45.705Z,8.60
2017-11-20T14:45:13.276Z,9.50
2017-11-20T14:47:40.950Z,8.60
2017-11-20T14:50:08.567Z,7.87
2017-11-20T14:52:37.813Z,8.00
2017-11-20T14:55:05.470Z,8.20
2017-11-20T14:57:33.065Z,8.60
2017-11-20T15:00:00.786Z,8.47
2017-11-20T15:02:28.438Z,8.10
2017-11-20T15:04:56.104Z,8.43
2017-11-20T15:07:23.719Z,8.80
2017-11-20T15:09:51.391Z,10.10
2017-11-20T15:12:19.019Z,8.90
2017-11-20T15:14:46.649Z,8.03
2017-11-20T15:17:14.260Z,8.40
2017-11-20T15:19:41.906Z,7.77
2017-11-20T15:22:09.519Z,7.67
2017-11-20T15:24:37.183Z,8.57
2017-11-20T15:27:04.963Z,8.10
2017-11-20T15:29:32.633Z,8.43
2017-11-20T15:32:00.381Z,8.40
2017-11-20T15:34:28.539Z,9.00
2017-11-20T15:36:56.192Z,8.63
2017-11-20T15:39:23.888Z,9.50
2017-11-20T15:41:51.520Z,9.30
2017-11-20T15:44:19.142Z,9.70
2017-11-20T15:46:47.123Z,11.10
2017-11-20T15:49:14.824Z,9.43
2017-11-20T15:51:42.399Z,9.17
2017-11-20T15:54:10.008Z,9.10
2017-11-20T15:56:37.662Z,9.23
2017-11-20T15:59:05.307Z,9.47
2017-11-20T16:01:32.957Z,9.07
2017-11-20T16:04:00.617Z,9.13
2017-11-20T16:06:28.220Z,16.40
2017-11-20T16:08:55.911Z,10.70
2017-11-20T16:11:23.524Z,9.23
2017-11-20T16:13:51.281Z,8.87
2017-11-20T16:16:18.877Z,8.80
2017-11-20T16:18:46.469Z,9.00
2017-11-20T16:23:48.312Z,10.00
2017-11-20T16:26:15.969Z,9.63
2017-11-20T16:28:43.749Z,9.00
2017-11-20T16:31:12.455Z,12.70
2017-11-20T16:33:40.234Z,8.80
2017-11-20T16:36:07.913Z,9.87
2017-11-20T16:38:35.622Z,9.60
2017-11-20T16:41:03.304Z,9.20
2017-11-20T16:43:31.024Z,9.40
2017-11-20T16:45:58.683Z,10.17
2017-11-20T16:48:26.419Z,10.40
2017-11-20T16:50:54.061Z,10.83
2017-11-20T16:53:21.692Z,10.73
2017-11-20T16:55:49.366Z,11.77
2017-11-20T17:01:40.459Z,13.20
2017-11-20T17:04:08.074Z,14.00
2017-11-20T17:06:35.682Z,14.77
2017-11-20T17:09:03.342Z,16.30
2017-11-20T17:11:31.314Z,15.50
2017-11-20T17:13:58.929Z,15.77
2017-11-20T17:16:26.562Z,16.73
2017-11-20T17:18:54.178Z,17.17
2017-11-20T17:21:21.802Z,17.70
2017-11-20T17:23:49.404Z,17.90
2017-11-20T17:26:17.011Z,18.50
2017-11-20T17:28:44.629Z,18.73
2017-11-20T17:31:12.223Z,20.10
2017-11-20T17:33:39.911Z,22.50
2017-11-20T17:36:07.531Z,20.87
2017-11-20T17:38:35.138Z,20.37
2017-11-20T17:41:02.747Z,22.83
2017-11-20T17:43:30.346Z,20.53
2017-11-20T17:45:57.997Z,21.47
2017-11-20T17:48:25.592Z,22.43
2017-11-20T17:50:53.516Z,22.00
2017-11-20T17:53:21.154Z,21.90
2017-11-20T17:55:48.740Z,22.57
2017-11-20T17:58:16.375Z,22.53
2017-11-20T18:00:43.977Z,24.30
2017-11-20T18:03:11.593Z,24.87
2017-11-20T18:05:39.488Z,25.63
2017-11-20T18:08:07.070Z,22.77
2017-11-20T18:10:35.017Z,24.07
2017-11-20T18:13:02.613Z,24.90
2017-11-20T18:15:30.218Z,24.60
2017-11-20T18:17:57.854Z,23.80
2017-11-20T18:20:25.449Z,24.73
2017-11-20T18:22:53.442Z,25.03
2017-11-20T18:25:21.080Z,23.17
2017-11-20T18:27:48.678Z,23.00
2017-11-20T18:30:16.305Z,23.27
2017-11-20T18:32:43.898Z,23.07
2017-11-20T18:35:11.526Z,21.87
2017-11-20T18:37:39.123Z,24.00
2017-11-20T18:40:06.721Z,24.13
2017-11-20T18:42:34.351Z,24.13
2017-11-20T18:45:01.941Z,23.07
2017-11-20T18:47:29.574Z,22.37
2017-11-20T18:49:57.526Z,22.10
2017-11-20T18:52:25.105Z,21.47
2017-11-20T18:54:52.786Z,21.77
2017-11-20T18:57:20.373Z,21.27
2017-11-20T18:59:48.002Z,21.30
2017-11-20T19:05:34.340Z,20.83
2017-11-20T19:08:13.784Z,22.30
2017-11-20T19:10:41.426Z,21.20
2017-11-20T19:13:09.073Z,22.60
2017-11-20T19:15:36.932Z,22.73
2017-11-20T19:18:04.545Z,21.60
2017-11-20T19:20:32.155Z,22.00
2017-11-20T19:22:59.811Z,22.93
2017-11-20T19:25:27.422Z,23.13
2017-11-20T19:27:55.166Z,22.67
2017-11-20T19:30:23.068Z,22.50
2017-11-20T19:32:50.658Z,23.00
2017-11-20T19:35:18.354Z,22.27
2017-11-20T19:37:45.992Z,21.30
2017-11-20T19:40:13.604Z,23.07
2017-11-20T19:42:41.253Z,21.40
2017-11-20T19:45:08.901Z,21.50
2017-11-20T19:47:36.678Z,19.60
2017-11-20T19:50:04.381Z,21.03
2017-11-20T19:52:32.286Z,18.20
2017-11-20T19:54:59.913Z,18.20
2017-11-20T19:57:27.933Z,20.00
2017-11-20T19:59:55.594Z,19.20
2017-11-20T20:02:23.216Z,17.50
2017-11-20T20:04:51.034Z,18.50
2017-11-20T20:07:18.753Z,17.83
2017-11-20T20:09:46.373Z,17.50
2017-11-20T20:12:14.016Z,17.50
2017-11-20T20:14:53.639Z,18.10
2017-11-20T20:17:21.323Z,18.40
2017-11-20T20:19:48.926Z,18.00
2017-11-20T20:22:16.546Z,17.43
2017-11-20T20:24:44.172Z,16.57
2017-11-20T20:27:11.776Z,17.17
2017-11-20T20:29:39.441Z,18.30
2017-11-20T20:32:07.050Z,18.90
2017-11-20T20:34:34.654Z,19.20
2017-11-20T20:37:02.285Z,17.80
2017-11-20T20:39:29.900Z,17.83
2017-11-20T20:41:57.556Z,19.47
2017-11-20T20:44:25.198Z,18.23
2017-11-20T20:46:52.838Z,17.73
2017-11-20T20:49:20.465Z,16.33
2017-11-20T20:51:48.112Z,17.47
2017-11-20T20:54:15.759Z,17.93
2017-11-20T20:56:43.363Z,16.23
2017-11-20T20:59:11.399Z,19.33
2017-11-20T21:01:39.062Z,18.37
2017-11-20T21:04:06.684Z,18.20
2017-11-20T21:06:34.686Z,17.70
2017-11-20T21:09:02.300Z,19.10
2017-11-20T21:11:35.425Z,17.70
2017-11-20T21:14:03.041Z,17.63
2017-11-20T21:16:30.636Z,18.23
2017-11-20T21:18:58.250Z,24.27
2017-11-20T21:21:26.292Z,20.70
2017-11-20T21:23:53.955Z,19.40
2017-11-20T21:26:21.556Z,19.57
2017-11-20T21:28:49.160Z,18.20
2017-11-20T21:31:17.043Z,18.57
2017-11-20T21:33:44.653Z,19.43
2017-11-20T21:36:12.287Z,19.50
2017-11-20T21:38:40.239Z,22.50
2017-11-20T21:41:08.105Z,18.20
2017-11-20T21:43:35.733Z,19.10
2017-11-20T21:46:03.324Z,18.90
2017-11-20T21:48:30.994Z,19.50
2017-11-20T21:50:58.857Z,18.87
2017-11-20T21:53:26.474Z,20.80
2017-11-20T21:55:54.090Z,20.43
2017-11-20T21:58:21.739Z,19.87
2017-11-20T22:00:49.437Z,20.33
2017-11-20T22:03:17.035Z,18.80
2017-11-20T22:05:44.618Z,18.87
2017-11-20T22:08:12.596Z,19.30
2017-11-20T22:10:40.190Z,17.37
2017-11-20T22:16:05.689Z,18.70
2017-11-20T22:18:33.316Z,19.27
2017-11-20T22:21:00.929Z,18.50
2017-11-20T22:23:28.549Z,18.57
2017-11-20T22:25:56.140Z,17.30
2017-11-20T22:28:23.744Z,17.47
2017-11-20T22:30:51.354Z,16.93
2017-11-20T22:33:18.954Z,16.67
2017-11-20T22:35:46.572Z,15.70
2017-11-20T22:38:14.184Z,15.40
2017-11-20T22:40:41.771Z,16.03
2017-11-20T22:43:09.480Z,16.10
2017-11-20T22:45:37.450Z,16.87
2017-11-20T22:48:05.421Z,17.10
2017-11-20T22:50:33.016Z,17.73
2017-11-20T22:53:00.621Z,18.20
2017-11-20T22:55:28.235Z,17.13
2017-11-20T22:57:55.822Z,16.50
2017-11-20T23:00:23.459Z,17.90
2017-11-20T23:02:51.059Z,18.50
2017-11-20T23:05:18.663Z,18.70
2017-11-20T23:07:46.336Z,17.70
2017-11-20T23:10:13.917Z,19.20
2017-11-20T23:12:41.551Z,19.83
2017-11-20T23:15:09.143Z,19.77
2017-11-20T23:17:36.746Z,20.30
2017-11-20T23:20:04.358Z,18.87
2017-11-20T23:22:31.946Z,19.67
2017-11-20T23:24:59.852Z,19.20
2017-11-20T23:27:27.809Z,20.53
2017-11-20T23:29:55.395Z,20.63
2017-11-20T23:32:23.005Z,22.33
2017-11-20T23:34:50.604Z,21.20
2017-11-20T23:37:18.238Z,22.70
2017-11-20T23:39:45.822Z,21.67
2017-11-20T23:42:13.414Z,20.60
2017-11-20T23:44:41.368Z,20.70
2017-11-20T23:47:09.012Z,20.20
2017-11-20T23:49:36.588Z,20.10
2017-11-20T23:52:04.549Z,19.23
2017-11-20T23:54:38.262Z,20.30
2017-11-20T23:57:06.130Z,20.50
2017-11-20T23:59:34.009Z,17.40
